ADDS METAR Data INFO
IDs: Format: Raw Decoded Include TAF

Data at: 0751 UTC 20 Feb 2018

KTYR 200653Z AUTO 18015KT 10SM FEW019 SCT031 OVC044 22/19 A2992 RMK AO2 SLP124 T02220189
KTYR 200629Z AUTO 17014G23KT 10SM FEW020 BKN033 OVC047 22/19 A2992 RMK AO2 T02220189
KTYR 200621Z AUTO 17014G25KT 10SM FEW020 BKN027 OVC037 22/19 A2992 RMK AO2 T02220194
KTYR 200553Z AUTO 17013G22KT 10SM FEW019 SCT026 BKN041 22/19 A2991 RMK AO2 PK WND 16026/0509 SLP122 60000 T02170194 10244 20217 402610189 51002
KTYR 200453Z AUTO 17014G21KT 10SM FEW018 BKN029 OVC055 22/19 A2991 RMK AO2 SLP121 T02220189
KTYR 200402Z AUTO 17016G23KT 10SM FEW022 SCT028 OVC065 22/18 A2991 RMK AO2 T02220183
KTYR 200353Z AUTO 17018G23KT 10SM FEW025 BKN029 OVC050 22/18 A2991 RMK AO2 RAB21E53 SLP123 P0000 T02220178
KTYR 200308Z 17013G20KT 10SM BKN028 OVC042 22/17 A2991 RMK AO2 T02220167
KTYR 200253Z 17015G20KT 10SM SCT030 BKN035 OVC060 23/16 A2991 RMK AO2 PK WND 15026/0154 SLP121 T02280161 53010
KTYR 200153Z 16015G29KT 10SM CLR 23/15 A2987 RMK AO2 PK WND 15029/0145 SLP109 T02280150
KTYR 200053Z 16016G23KT 10SM FEW080 SCT120 23/15 A2987 RMK AO2 SLP109 T02330150
KTYR 192353Z 17016G24KT 10SM FEW047 BKN055 OVC080 24/15 A2988 RMK AO2 PK WND 16026/2328 SLP111 T02440150 10261 20239 53003
KTYR 192253Z 17016G24KT 10SM BKN044 OVC055 25/16 A2987 RMK AO2 PK WND 18030/2240 SLP108 T02500156
KTYR 192153Z 17015G23KT 10SM FEW045 BKN055 OVC070 25/16 A2987 RMK AO2 PK WND 18029/2054 SLP107 T02500156
KTYR 192053Z 17017G22KT 10SM FEW042 BKN060 26/16 A2986 RMK AO2 PK WND 18032/2023 SLP107 T02560156 56019
KTYR 191953Z 17018G29KT 10SM SCT042 BKN055 26/16 A2987 RMK AO2 PK WND 19035/1921 SLP109 T02560156
KTYR 191853Z 19022G36KT 10SM SCT028 25/16 A2990 RMK AO2 PK WND 19036/1845 SLP118 T02500156
KTYR 191753Z 18020G27KT 10SM BKN028 24/17 A2992 RMK AO2 PK WND 19032/1739 SLP126 T02390167 10239 20189 57008
KTYR 191701Z 19019G31KT 10SM BKN025 23/17 A2993 RMK AO2 PK WND 18031/1655 T02330172
KTYR 191653Z 19019G32KT 10SM SCT025 23/17 A2993 RMK AO2 PK WND 20034/1635 SLP130 T02280172
KTYR 191553Z 18021G27KT 10SM BKN020 22/18 A2994 RMK AO2 PK WND 18027/1553 SLP131 T02220178
KTYR 191453Z 18017G24KT 10SM BKN018 OVC030 21/17 A2995 RMK AO2 SLP135 T02060172 51002
KTYR 191353Z 17012KT 10SM BKN016 BKN022 BKN034 19/17 A2994 RMK AO2 SLP134 T01940172
KTYR 191322Z 16014KT 10SM SCT018 BKN027 OVC038 19/17 A2995 RMK AO2 T01890167
KTYR 191304Z 16011KT 10SM FEW015 SCT020 OVC036 19/17 A2995 RMK AO2 T01890167
KTYR 191253Z 16010G18KT 10SM BKN020 OVC034 19/17 A2995 RMK AO2 SLP136 T01890167
KTYR 191153Z AUTO 17014G21KT 10SM OVC025 19/17 A2994 RMK AO2 SLP133 T01890167 10200 20189 55001
KTYR 191053Z AUTO 18015G23KT 10SM BKN028 19/16 A2994 RMK AO2 SLP132 T01890161
KTYR 191002Z AUTO 17014KT 10SM SCT029 19/16 A2993 RMK AO2 T01890161
KTYR 190953Z AUTO 17013KT 10SM BKN029 19/16 A2992 RMK AO2 SLP128 T01890161
KTYR 190905Z AUTO 18015KT 10SM FEW023 OVC030 19/16 A2994 RMK AO2 T01890161
KTYR 190853Z AUTO 18014G21KT 10SM BKN023 OVC030 19/17 A2994 RMK AO2 SLP135 T01890167 51001
KTYR 190833Z AUTO 18013KT 10SM SCT023 OVC028 19/17 A2995 RMK AO2 T01890167
KTYR 190753Z AUTO 18014G20KT 10SM SCT018 19/17 A2994 RMK AO2 SLP135 T01940167
KTYR 190744Z AUTO 18014KT 10SM SCT018 19/17 A2994 RMK AO2 T01940167
KTYR 190717Z AUTO 17015KT 10SM BKN020 19/17 A2994 RMK AO2 T01940167
KTYR 190653Z AUTO 17015G19KT 10SM SCT018 19/17 A2994 RMK AO2 SLP134 T01940167
KTYR 190649Z AUTO 18012KT 10SM SCT018 19/17 A2994 RMK AO2
KTYR 190553Z AUTO 17015G26KT 10SM BKN019 19/17 A2994 RMK AO2 PK WND 17027/0503 SLP133 T01940172 10200 20172 402000083 58001
KTYR 190453Z AUTO 17013KT 10SM BKN018 20/17 A2994 RMK AO2 SLP136 T02000172
KTYR 190414Z AUTO 17012G20KT 10SM BKN017 20/18 A2995 RMK AO2 T02000178
KTYR 190353Z AUTO 17016G21KT 10SM FEW017 20/18 A2995 RMK AO2 SLP138 T02000178
KTYR 190253Z 17013KT 10SM CLR 19/17 A2994 RMK AO2 SLP135 T01940172 53000
KTYR 190153Z 16013KT 10SM CLR 18/17 A2993 RMK AO2 SLP131 T01830172
KTYR 190053Z 15011KT 10SM CLR 18/17 A2993 RMK AO2 SLP132 T01780167
KTYR 182353Z 14009KT 10SM CLR 17/16 A2994 RMK AO2 SLP135 T01720161 10172 20122 56032
KTYR 182331Z 14012KT 10SM FEW007 17/16 A2994 RMK AO2 T01720156
KTYR 182303Z 14010KT 10SM FEW017 17/16 A2995 RMK AO2 T01720156
KTYR 182253Z 14010KT 10SM FEW004 BKN017 17/16 A2996 RMK AO2 PRESFR SLP141 T01670156
KTYR 182239Z 15009KT 5SM BR SCT004 OVC016 17/15 A2997 RMK AO2 PRESFR T01670150
KTYR 182153Z 15007KT 2 1/2SM BR OVC003 16/14 A3000 RMK AO2 SLP157 T01560139
KTYR 182053Z 15007KT 1/2SM FG OVC002 14/13 A3004 RMK AO2 SLP169 T01390133 58029
KTYR 181953Z 15005KT 1/2SM FG OVC002 13/12 A3007 RMK AO2 SLP179 T01280122